All  160m  80m  60m  40m   30m  20m  17m  15m  12m  10m   6m  4m  2m  70cm || SSB: 20m  17m  15m  12m  10m || Search || Spot || WX
DJ4PK-Cluster page updates automatically every 10 seconds - You can also telnet into this node: dxcc.de port 4000

DX-CallQRG Date - UTCSpotterComment
UX1MW7074.02020-01-26 - 20:14JL1UTSFT8
9G2HO7037.02020-01-26 - 20:08W3LPLHeard in NH
9K2HM7074.02020-01-26 - 20:07EA7BFF/8
KB2TGU7194.02020-01-26 - 20:06N4SOCPOTA K-4995
HZ1TT7131.02020-01-26 - 20:00IU2JZA9+10
ZS6WHY7074.02020-01-26 - 19:59PD0LK-12 TNX FT8 QSO 73 from Leen
M0KRI7137.02020-01-26 - 19:56EA5IPMCQ CQ 40
MI0UFT7074.02020-01-26 - 19:55WO2NFT8 Tnx John 73..
IZ8DEP7145.02020-01-26 - 19:51M0HAO
GM2CWO7029.42020-01-26 - 19:50SM0NSJ
HA8RC7074.02020-01-26 - 19:48JL1UTSFT8
YT7E7074.02020-01-26 - 19:47JL1UTSFT8
9Q1C7002.02020-01-26 - 19:469A2KIQRT
BU87168.02020-01-26 - 19:46UA3RFD???
OX3LX7074.02020-01-26 - 19:46VK7ACTNX QSO GERONNE F/B
9A2CD7074.02020-01-26 - 19:45JL1UTSFT8
YT7TA7074.02020-01-26 - 19:44JL1UTSFT8
EA7GVZ7074.02020-01-26 - 19:42EA3IDYFT8
A45XR7074.02020-01-26 - 19:42JL1UTSFT8
A61Q7018.02020-01-26 - 19:36PY7DJtu qso - real 599 hr - 73
K0IDX7007.52020-01-26 - 19:36K2YWECQ
ZS6ZA7074.02020-01-26 - 19:36UA4HQS
YL2BR7074.02020-01-26 - 19:36EA3IDYFT8
VK7AC7074.02020-01-26 - 19:35WO2NCall Corr Sri
VK7AC7074.02020-01-26 - 19:34UA4HQScorr call
VK9AC7074.02020-01-26 - 19:33WO2NFT8 Tyasmania Is. OC 006
YL2LW7074.02020-01-26 - 19:32EA3IDYFT8
KB2TGU7194.02020-01-26 - 19:32KE4ZUNPOTA K-4995
A61Q7018.02020-01-26 - 19:31G3SVKTKS QSO 73s de Fred
K8HQ7180.02020-01-26 - 19:30NR4DPOTA K-1976
VK9AC7074.02020-01-26 - 19:29WO2NFT8 Tnx Norman for NEW Band Mo
9Q1C7002.02020-01-26 - 19:28IK7EESTNX !!
7Z1IS7127.02020-01-26 - 19:27EA5IPMCQ DX
A61Q7009.02020-01-26 - 19:26W3LPLHeard in NH
K8HQ7180.02020-01-26 - 19:23KC4YCT
RZ6C7115.52020-01-26 - 19:23UA3RFDtnx QSO
W3VL7269.52020-01-26 - 19:22KE4ZUNPOTA K-1425
K8HQ7180.02020-01-26 - 19:20KE4ZUNPOTA K--1976
RZ6C7115.52020-01-26 - 19:19UA3RFD
9Q1C7002.02020-01-26 - 19:19DF9ZVqsk 1.2 up
BU2DR7149.02020-01-26 - 19:15F4HTO59+
Z35T7074.02020-01-26 - 19:15WO2NFT8 CQ Tnx QSO 73..
DK7LJ7140.02020-01-26 - 19:13S56KFG!!!!!!!!
E74ZZ7135.02020-01-26 - 19:12EA7JIA
9Q1C7002.02020-01-26 - 19:11IK0OPStnx 73
IQ6KX7074.02020-01-26 - 19:10IZ6PPUSPACE STATION AWARD INFO IQ6KX
EA7GAK7152.02020-01-26 - 19:08EA3URP((cq,cq,cq,dx,dx,dx))
9Q1C7002.02020-01-26 - 19:08RW3ZNUP1
9K2HM7074.02020-01-26 - 19:06IW9HMQFT8 73!!
IK6BGJ7162.52020-01-26 - 19:04EA5JNCQ EU 73 TNX QSO.